sensor_id;sensor_type;location;lat;lon;timestamp;P1;durP1;ratioP1;P2;durP2;ratioP2
2848;SDS011;59355;52.416;13.412;2023-05-10T00:00:38;8.40;;;7.60;;
2848;SDS011;59355;52.416;13.412;2023-05-10T00:03:03;7.70;;;6.90;;
2848;SDS011;59355;52.416;13.412;2023-05-10T00:05:29;7.97;;;7.27;;
2848;SDS011;59355;52.416;13.412;2023-05-10T00:07:55;9.03;;;8.23;;
2848;SDS011;59355;52.416;13.412;2023-05-10T00:10:20;8.50;;;7.60;;
2848;SDS011;59355;52.416;13.412;2023-05-10T00:12:45;8.90;;;7.83;;
2848;SDS011;59355;52.416;13.412;2023-05-10T00:15:11;9.17;;;7.17;;
2848;SDS011;59355;52.416;13.412;2023-05-10T00:17:36;9.00;;;8.10;;
2848;SDS011;59355;52.416;13.412;2023-05-10T00:20:01;7.93;;;7.23;;
2848;SDS011;59355;52.416;13.412;2023-05-10T00:22:29;12.90;;;7.97;;
2848;SDS011;59355;52.416;13.412;2023-05-10T00:24:55;8.43;;;7.60;;
2848;SDS011;59355;52.416;13.412;2023-05-10T00:27:20;8.90;;;8.00;;
2848;SDS011;59355;52.416;13.412;2023-05-10T00:29:45;8.80;;;7.90;;
2848;SDS011;59355;52.416;13.412;2023-05-10T00:32:11;8.10;;;7.10;;
2848;SDS011;59355;52.416;13.412;2023-05-10T00:34:36;11.57;;;8.33;;
2848;SDS011;59355;52.416;13.412;2023-05-10T00:37:01;8.53;;;7.63;;
2848;SDS011;59355;52.416;13.412;2023-05-10T00:39:27;10.73;;;8.00;;
2848;SDS011;59355;52.416;13.412;2023-05-10T00:41:53;8.53;;;7.73;;
2848;SDS011;59355;52.416;13.412;2023-05-10T00:44:18;8.77;;;7.97;;
2848;SDS011;59355;52.416;13.412;2023-05-10T00:46:44;10.30;;;7.73;;
2848;SDS011;59355;52.416;13.412;2023-05-10T00:49:10;9.77;;;8.87;;
2848;SDS011;59355;52.416;13.412;2023-05-10T00:51:35;8.93;;;8.10;;
2848;SDS011;59355;52.416;13.412;2023-05-10T00:54:01;8.20;;;7.40;;
2848;SDS011;59355;52.416;13.412;2023-05-10T00:56:27;8.80;;;7.93;;
2848;SDS011;59355;52.416;13.412;2023-05-10T00:58:54;8.53;;;7.80;;
2848;SDS011;59355;52.416;13.412;2023-05-10T01:01:19;9.20;;;7.70;;
2848;SDS011;59355;52.416;13.412;2023-05-10T01:03:45;9.53;;;8.63;;
2848;SDS011;59355;52.416;13.412;2023-05-10T01:06:10;7.63;;;7.03;;
2848;SDS011;59355;52.416;13.412;2023-05-10T01:08:36;9.27;;;7.80;;
2848;SDS011;59355;52.416;13.412;2023-05-10T01:11:01;8.40;;;7.60;;
2848;SDS011;59355;52.416;13.412;2023-05-10T01:13:30;8.53;;;7.73;;
2848;SDS011;59355;52.416;13.412;2023-05-10T01:16:01;8.83;;;7.93;;
2848;SDS011;59355;52.416;13.412;2023-05-10T01:18:30;7.87;;;7.00;;
2848;SDS011;59355;52.416;13.412;2023-05-10T01:24:07;8.67;;;7.40;;
2848;SDS011;59355;52.416;13.412;2023-05-10T01:35:26;10.17;;;9.17;;
2848;SDS011;59355;52.416;13.412;2023-05-10T01:40:48;9.57;;;8.57;;
2848;SDS011;59355;52.416;13.412;2023-05-10T01:43:26;8.57;;;7.67;;
2848;SDS011;59355;52.416;13.412;2023-05-10T01:45:57;9.87;;;8.97;;
2848;SDS011;59355;52.416;13.412;2023-05-10T01:48:26;9.77;;;8.87;;
2848;SDS011;59355;52.416;13.412;2023-05-10T01:50:53;8.90;;;8.10;;
2848;SDS011;59355;52.416;13.412;2023-05-10T01:53:18;9.90;;;8.90;;
2848;SDS011;59355;52.416;13.412;2023-05-10T01:55:46;11.80;;;8.97;;
2848;SDS011;59355;52.416;13.412;2023-05-10T01:58:13;9.60;;;8.40;;
2848;SDS011;59355;52.416;13.412;2023-05-10T02:00:42;9.00;;;8.13;;
2848;SDS011;59355;52.416;13.412;2023-05-10T02:03:08;8.87;;;8.10;;
2848;SDS011;59355;52.416;13.412;2023-05-10T02:05:34;9.10;;;8.13;;
2848;SDS011;59355;52.416;13.412;2023-05-10T02:08:01;9.10;;;7.83;;
2848;SDS011;59355;52.416;13.412;2023-05-10T02:10:28;14.13;;;9.67;;
2848;SDS011;59355;52.416;13.412;2023-05-10T02:13:09;10.57;;;9.40;;
2848;SDS011;59355;52.416;13.412;2023-05-10T02:15:35;9.47;;;8.57;;
2848;SDS011;59355;52.416;13.412;2023-05-10T02:18:02;9.50;;;8.70;;
2848;SDS011;59355;52.416;13.412;2023-05-10T02:20:28;10.20;;;9.10;;
2848;SDS011;59355;52.416;13.412;2023-05-10T02:22:54;9.47;;;8.63;;
2848;SDS011;59355;52.416;13.412;2023-05-10T02:25:21;9.00;;;8.20;;
2848;SDS011;59355;52.416;13.412;2023-05-10T02:27:47;9.73;;;8.73;;
2848;SDS011;59355;52.416;13.412;2023-05-10T02:30:13;12.67;;;9.47;;
2848;SDS011;59355;52.416;13.412;2023-05-10T02:32:39;9.53;;;8.63;;
2848;SDS011;59355;52.416;13.412;2023-05-10T02:35:05;9.53;;;8.57;;
2848;SDS011;59355;52.416;13.412;2023-05-10T02:37:31;9.53;;;8.63;;
2848;SDS011;59355;52.416;13.412;2023-05-10T02:39:57;9.23;;;7.90;;
2848;SDS011;59355;52.416;13.412;2023-05-10T02:42:24;9.60;;;8.70;;
2848;SDS011;59355;52.416;13.412;2023-05-10T02:44:51;8.70;;;7.90;;
2848;SDS011;59355;52.416;13.412;2023-05-10T02:47:18;10.03;;;8.83;;
2848;SDS011;59355;52.416;13.412;2023-05-10T02:49:43;12.17;;;9.20;;
2848;SDS011;59355;52.416;13.412;2023-05-10T02:52:09;10.47;;;9.37;;
2848;SDS011;59355;52.416;13.412;2023-05-10T02:54:39;10.30;;;8.90;;
2848;SDS011;59355;52.416;13.412;2023-05-10T02:57:08;9.27;;;8.47;;
2848;SDS011;59355;52.416;13.412;2023-05-10T02:59:36;13.50;;;9.30;;
2848;SDS011;59355;52.416;13.412;2023-05-10T03:02:01;12.80;;;8.23;;
2848;SDS011;59355;52.416;13.412;2023-05-10T03:04:28;10.40;;;9.37;;
2848;SDS011;59355;52.416;13.412;2023-05-10T03:06:53;9.40;;;8.50;;
2848;SDS011;59355;52.416;13.412;2023-05-10T03:09:18;8.90;;;8.00;;
2848;SDS011;59355;52.416;13.412;2023-05-10T03:11:47;10.10;;;8.73;;
2848;SDS011;59355;52.416;13.412;2023-05-10T03:14:29;10.10;;;9.07;;
2848;SDS011;59355;52.416;13.412;2023-05-10T03:17:10;10.07;;;8.90;;
2848;SDS011;59355;52.416;13.412;2023-05-10T03:19:43;9.17;;;8.27;;
2848;SDS011;59355;52.416;13.412;2023-05-10T03:22:21;15.70;;;9.00;;
2848;SDS011;59355;52.416;13.412;2023-05-10T03:24:50;8.63;;;7.83;;
2848;SDS011;59355;52.416;13.412;2023-05-10T03:27:19;10.03;;;7.80;;
2848;SDS011;59355;52.416;13.412;2023-05-10T03:29:45;11.03;;;9.83;;
2848;SDS011;59355;52.416;13.412;2023-05-10T03:32:11;8.80;;;7.90;;
2848;SDS011;59355;52.416;13.412;2023-05-10T03:34:40;8.83;;;7.93;;
2848;SDS011;59355;52.416;13.412;2023-05-10T03:37:06;9.33;;;8.33;;
2848;SDS011;59355;52.416;13.412;2023-05-10T03:39:31;9.93;;;8.00;;
2848;SDS011;59355;52.416;13.412;2023-05-10T03:41:57;8.50;;;7.80;;
2848;SDS011;59355;52.416;13.412;2023-05-10T03:44:22;8.17;;;7.30;;
2848;SDS011;59355;52.416;13.412;2023-05-10T03:46:47;9.80;;;8.70;;
2848;SDS011;59355;52.416;13.412;2023-05-10T03:49:13;9.10;;;8.20;;
2848;SDS011;59355;52.416;13.412;2023-05-10T03:51:38;9.83;;;8.30;;
2848;SDS011;59355;52.416;13.412;2023-05-10T03:54:03;10.43;;;8.70;;
2848;SDS011;59355;52.416;13.412;2023-05-10T03:56:28;8.60;;;7.90;;
2848;SDS011;59355;52.416;13.412;2023-05-10T03:58:54;9.20;;;8.17;;
2848;SDS011;59355;52.416;13.412;2023-05-10T04:01:20;9.43;;;7.80;;
2848;SDS011;59355;52.416;13.412;2023-05-10T04:03:45;9.07;;;8.17;;
2848;SDS011;59355;52.416;13.412;2023-05-10T04:06:10;9.00;;;7.93;;
2848;SDS011;59355;52.416;13.412;2023-05-10T04:08:36;10.07;;;7.80;;
2848;SDS011;59355;52.416;13.412;2023-05-10T04:11:05;9.57;;;7.60;;
2848;SDS011;59355;52.416;13.412;2023-05-10T04:13:31;9.20;;;8.30;;
2848;SDS011;59355;52.416;13.412;2023-05-10T04:15:57;8.80;;;7.80;;
2848;SDS011;59355;52.416;13.412;2023-05-10T04:18:22;8.67;;;7.63;;
2848;SDS011;59355;52.416;13.412;2023-05-10T04:20:47;8.53;;;7.73;;
2848;SDS011;59355;52.416;13.412;2023-05-10T04:23:13;9.13;;;7.73;;
2848;SDS011;59355;52.416;13.412;2023-05-10T04:25:40;9.47;;;6.90;;
2848;SDS011;59355;52.416;13.412;2023-05-10T04:28:05;8.10;;;7.30;;
2848;SDS011;59355;52.416;13.412;2023-05-10T04:30:31;7.90;;;7.07;;
2848;SDS011;59355;52.416;13.412;2023-05-10T04:32:56;8.23;;;7.40;;
2848;SDS011;59355;52.416;13.412;2023-05-10T04:35:21;11.83;;;7.40;;
2848;SDS011;59355;52.416;13.412;2023-05-10T04:37:47;8.43;;;7.63;;
2848;SDS011;59355;52.416;13.412;2023-05-10T04:40:12;10.00;;;7.83;;
2848;SDS011;59355;52.416;13.412;2023-05-10T04:42:39;11.53;;;7.67;;
2848;SDS011;59355;52.416;13.412;2023-05-10T04:45:06;10.47;;;7.53;;
2848;SDS011;59355;52.416;13.412;2023-05-10T04:47:31;13.07;;;7.70;;
2848;SDS011;59355;52.416;13.412;2023-05-10T04:49:57;8.50;;;7.57;;
2848;SDS011;59355;52.416;13.412;2023-05-10T04:52:23;7.57;;;6.77;;
2848;SDS011;59355;52.416;13.412;2023-05-10T04:54:48;8.80;;;7.33;;
2848;SDS011;59355;52.416;13.412;2023-05-10T04:57:14;11.20;;;7.40;;
2848;SDS011;59355;52.416;13.412;2023-05-10T04:59:39;7.50;;;6.80;;
2848;SDS011;59355;52.416;13.412;2023-05-10T05:02:04;7.50;;;6.60;;
2848;SDS011;59355;52.416;13.412;2023-05-10T05:04:30;7.30;;;6.60;;
2848;SDS011;59355;52.416;13.412;2023-05-10T05:06:56;8.00;;;6.77;;
2848;SDS011;59355;52.416;13.412;2023-05-10T05:09:21;7.47;;;6.87;;
2848;SDS011;59355;52.416;13.412;2023-05-10T05:11:46;7.87;;;6.93;;
2848;SDS011;59355;52.416;13.412;2023-05-10T05:14:11;7.07;;;6.37;;
2848;SDS011;59355;52.416;13.412;2023-05-10T05:16:37;10.03;;;6.90;;
2848;SDS011;59355;52.416;13.412;2023-05-10T05:19:02;7.20;;;6.50;;
2848;SDS011;59355;52.416;13.412;2023-05-10T05:21:27;6.97;;;6.37;;
2848;SDS011;59355;52.416;13.412;2023-05-10T05:23:53;6.03;;;5.43;;
2848;SDS011;59355;52.416;13.412;2023-05-10T05:26:19;10.73;;;6.77;;
2848;SDS011;59355;52.416;13.412;2023-05-10T05:28:44;6.00;;;5.40;;
2848;SDS011;59355;52.416;13.412;2023-05-10T05:31:09;6.93;;;6.33;;
2848;SDS011;59355;52.416;13.412;2023-05-10T05:33:35;8.60;;;5.57;;
2848;SDS011;59355;52.416;13.412;2023-05-10T05:36:04;8.03;;;6.33;;
2848;SDS011;59355;52.416;13.412;2023-05-10T05:38:29;6.47;;;5.83;;
2848;SDS011;59355;52.416;13.412;2023-05-10T05:40:55;7.80;;;6.03;;
2848;SDS011;59355;52.416;13.412;2023-05-10T05:43:20;6.37;;;5.13;;
2848;SDS011;59355;52.416;13.412;2023-05-10T05:45:45;6.33;;;5.50;;
2848;SDS011;59355;52.416;13.412;2023-05-10T05:48:11;7.00;;;5.23;;
2848;SDS011;59355;52.416;13.412;2023-05-10T05:50:36;6.10;;;5.50;;
2848;SDS011;59355;52.416;13.412;2023-05-10T05:53:01;5.63;;;5.13;;
2848;SDS011;59355;52.416;13.412;2023-05-10T05:55:27;7.10;;;6.00;;
2848;SDS011;59355;52.416;13.412;2023-05-10T05:57:52;5.60;;;4.90;;
2848;SDS011;59355;52.416;13.412;2023-05-10T06:00:18;7.17;;;5.60;;
2848;SDS011;59355;52.416;13.412;2023-05-10T06:02:43;5.50;;;5.00;;
2848;SDS011;59355;52.416;13.412;2023-05-10T06:05:09;5.10;;;4.70;;
2848;SDS011;59355;52.416;13.412;2023-05-10T06:07:34;6.53;;;5.10;;
2848;SDS011;59355;52.416;13.412;2023-05-10T06:10:00;6.00;;;5.40;;
2848;SDS011;59355;52.416;13.412;2023-05-10T06:15:31;6.73;;;4.67;;
2848;SDS011;59355;52.416;13.412;2023-05-10T06:17:57;6.27;;;4.77;;
2848;SDS011;59355;52.416;13.412;2023-05-10T06:20:23;5.03;;;4.57;;
2848;SDS011;59355;52.416;13.412;2023-05-10T06:22:48;5.07;;;4.43;;
2848;SDS011;59355;52.416;13.412;2023-05-10T06:25:13;6.67;;;5.17;;
2848;SDS011;59355;52.416;13.412;2023-05-10T06:27:39;4.47;;;3.97;;
2848;SDS011;59355;52.416;13.412;2023-05-10T06:30:05;4.83;;;4.33;;
2848;SDS011;59355;52.416;13.412;2023-05-10T06:32:30;7.13;;;3.97;;
2848;SDS011;59355;52.416;13.412;2023-05-10T06:34:56;4.77;;;3.77;;
2848;SDS011;59355;52.416;13.412;2023-05-10T06:37:21;5.00;;;4.47;;
2848;SDS011;59355;52.416;13.412;2023-05-10T06:39:46;4.40;;;3.97;;
2848;SDS011;59355;52.416;13.412;2023-05-10T06:42:12;5.20;;;4.40;;
2848;SDS011;59355;52.416;13.412;2023-05-10T06:44:37;5.67;;;4.90;;
2848;SDS011;59355;52.416;13.412;2023-05-10T06:47:02;6.90;;;4.80;;
2848;SDS011;59355;52.416;13.412;2023-05-10T06:49:27;4.33;;;3.60;;
2848;SDS011;59355;52.416;13.412;2023-05-10T06:51:53;6.70;;;3.97;;
2848;SDS011;59355;52.416;13.412;2023-05-10T06:54:18;4.57;;;4.17;;
2848;SDS011;59355;52.416;13.412;2023-05-10T06:56:43;6.37;;;4.27;;
2848;SDS011;59355;52.416;13.412;2023-05-10T06:59:09;9.40;;;4.80;;
2848;SDS011;59355;52.416;13.412;2023-05-10T07:01:34;4.33;;;3.77;;
2848;SDS011;59355;52.416;13.412;2023-05-10T07:04:00;6.17;;;4.50;;
2848;SDS011;59355;52.416;13.412;2023-05-10T07:06:25;5.30;;;4.80;;
2848;SDS011;59355;52.416;13.412;2023-05-10T07:08:50;4.63;;;4.13;;
2848;SDS011;59355;52.416;13.412;2023-05-10T07:11:16;6.00;;;4.10;;
2848;SDS011;59355;52.416;13.412;2023-05-10T07:13:41;5.23;;;4.10;;
2848;SDS011;59355;52.416;13.412;2023-05-10T07:16:09;6.10;;;4.73;;
2848;SDS011;59355;52.416;13.412;2023-05-10T07:18:34;4.40;;;4.00;;
2848;SDS011;59355;52.416;13.412;2023-05-10T07:21:00;5.50;;;3.73;;
2848;SDS011;59355;52.416;13.412;2023-05-10T07:23:25;4.70;;;4.30;;
2848;SDS011;59355;52.416;13.412;2023-05-10T07:25:51;6.53;;;3.53;;
2848;SDS011;59355;52.416;13.412;2023-05-10T07:28:17;4.13;;;3.70;;
2848;SDS011;59355;52.416;13.412;2023-05-10T07:30:42;6.27;;;4.27;;
2848;SDS011;59355;52.416;13.412;2023-05-10T07:33:08;5.00;;;4.50;;
2848;SDS011;59355;52.416;13.412;2023-05-10T07:35:34;4.53;;;4.03;;
2848;SDS011;59355;52.416;13.412;2023-05-10T07:38:00;4.87;;;4.47;;
2848;SDS011;59355;52.416;13.412;2023-05-10T07:40:25;5.47;;;4.60;;
2848;SDS011;59355;52.416;13.412;2023-05-10T07:42:51;4.70;;;4.07;;
2848;SDS011;59355;52.416;13.412;2023-05-10T07:45:16;7.73;;;4.40;;
2848;SDS011;59355;52.416;13.412;2023-05-10T07:47:42;6.53;;;4.10;;
2848;SDS011;59355;52.416;13.412;2023-05-10T07:50:07;4.70;;;4.10;;
2848;SDS011;59355;52.416;13.412;2023-05-10T07:52:33;5.43;;;3.80;;
2848;SDS011;59355;52.416;13.412;2023-05-10T07:54:58;5.17;;;4.13;;
2848;SDS011;59355;52.416;13.412;2023-05-10T07:57:23;6.03;;;3.90;;
2848;SDS011;59355;52.416;13.412;2023-05-10T07:59:49;4.87;;;4.23;;
2848;SDS011;59355;52.416;13.412;2023-05-10T08:02:14;4.77;;;4.00;;
2848;SDS011;59355;52.416;13.412;2023-05-10T08:04:39;5.57;;;3.60;;
2848;SDS011;59355;52.416;13.412;2023-05-10T08:07:05;5.27;;;4.23;;
2848;SDS011;59355;52.416;13.412;2023-05-10T08:09:30;5.30;;;4.33;;
2848;SDS011;59355;52.416;13.412;2023-05-10T08:11:55;4.20;;;3.80;;
2848;SDS011;59355;52.416;13.412;2023-05-10T08:14:21;3.63;;;3.33;;
2848;SDS011;59355;52.416;13.412;2023-05-10T08:16:46;6.43;;;4.23;;
2848;SDS011;59355;52.416;13.412;2023-05-10T08:19:12;3.77;;;3.43;;
2848;SDS011;59355;52.416;13.412;2023-05-10T08:21:37;5.27;;;4.23;;
2848;SDS011;59355;52.416;13.412;2023-05-10T08:24:03;5.20;;;3.90;;
2848;SDS011;59355;52.416;13.412;2023-05-10T08:26:28;4.17;;;3.77;;
2848;SDS011;59355;52.416;13.412;2023-05-10T08:28:53;5.10;;;3.50;;
2848;SDS011;59355;52.416;13.412;2023-05-10T08:31:19;4.60;;;3.13;;
2848;SDS011;59355;52.416;13.412;2023-05-10T08:33:44;3.83;;;3.47;;
2848;SDS011;59355;52.416;13.412;2023-05-10T08:36:09;4.63;;;4.23;;
2848;SDS011;59355;52.416;13.412;2023-05-10T08:38:34;9.17;;;3.63;;
2848;SDS011;59355;52.416;13.412;2023-05-10T08:41:00;3.97;;;3.67;;
2848;SDS011;59355;52.416;13.412;2023-05-10T08:43:27;5.40;;;4.17;;
2848;SDS011;59355;52.416;13.412;2023-05-10T08:45:54;5.20;;;4.33;;
2848;SDS011;59355;52.416;13.412;2023-05-10T08:48:20;3.90;;;3.60;;
2848;SDS011;59355;52.416;13.412;2023-05-10T08:50:47;4.60;;;3.90;;
2848;SDS011;59355;52.416;13.412;2023-05-10T08:53:13;4.53;;;4.10;;
2848;SDS011;59355;52.416;13.412;2023-05-10T08:55:40;4.87;;;4.10;;
2848;SDS011;59355;52.416;13.412;2023-05-10T08:58:07;4.50;;;3.80;;
2848;SDS011;59355;52.416;13.412;2023-05-10T09:00:33;5.70;;;3.73;;
2848;SDS011;59355;52.416;13.412;2023-05-10T09:02:59;5.37;;;3.77;;
2848;SDS011;59355;52.416;13.412;2023-05-10T09:05:25;4.00;;;3.70;;
2848;SDS011;59355;52.416;13.412;2023-05-10T09:07:50;3.77;;;3.43;;
2848;SDS011;59355;52.416;13.412;2023-05-10T09:10:15;4.40;;;3.63;;
2848;SDS011;59355;52.416;13.412;2023-05-10T09:12:41;4.30;;;3.90;;
2848;SDS011;59355;52.416;13.412;2023-05-10T09:15:09;5.37;;;4.23;;
2848;SDS011;59355;52.416;13.412;2023-05-10T09:17:34;4.93;;;4.47;;
2848;SDS011;59355;52.416;13.412;2023-05-10T09:20:00;5.30;;;4.00;;
2848;SDS011;59355;52.416;13.412;2023-05-10T09:22:27;4.87;;;3.80;;
2848;SDS011;59355;52.416;13.412;2023-05-10T09:25:12;6.20;;;4.00;;
2848;SDS011;59355;52.416;13.412;2023-05-10T09:27:39;4.13;;;3.73;;
2848;SDS011;59355;52.416;13.412;2023-05-10T09:30:06;4.83;;;3.80;;
2848;SDS011;59355;52.416;13.412;2023-05-10T09:32:36;4.20;;;3.80;;
2848;SDS011;59355;52.416;13.412;2023-05-10T09:35:07;4.10;;;3.70;;
2848;SDS011;59355;52.416;13.412;2023-05-10T09:37:38;3.97;;;3.10;;
2848;SDS011;59355;52.416;13.412;2023-05-10T09:40:06;4.27;;;3.53;;
2848;SDS011;59355;52.416;13.412;2023-05-10T09:42:33;5.00;;;4.33;;
2848;SDS011;59355;52.416;13.412;2023-05-10T09:45:02;4.30;;;3.90;;
2848;SDS011;59355;52.416;13.412;2023-05-10T09:47:29;8.23;;;4.30;;
2848;SDS011;59355;52.416;13.412;2023-05-10T09:49:55;4.13;;;3.73;;
2848;SDS011;59355;52.416;13.412;2023-05-10T09:52:23;4.73;;;4.23;;
2848;SDS011;59355;52.416;13.412;2023-05-10T09:54:54;6.50;;;4.80;;
2848;SDS011;59355;52.416;13.412;2023-05-10T09:57:23;6.20;;;4.03;;
2848;SDS011;59355;52.416;13.412;2023-05-10T09:59:49;5.00;;;3.73;;
2848;SDS011;59355;52.416;13.412;2023-05-10T10:02:15;3.60;;;3.30;;
2848;SDS011;59355;52.416;13.412;2023-05-10T10:04:41;4.23;;;3.90;;
2848;SDS011;59355;52.416;13.412;2023-05-10T10:07:07;6.90;;;3.60;;
2848;SDS011;59355;52.416;13.412;2023-05-10T10:09:33;4.27;;;3.80;;
2848;SDS011;59355;52.416;13.412;2023-05-10T10:11:59;7.77;;;3.80;;
2848;SDS011;59355;52.416;13.412;2023-05-10T10:14:25;4.00;;;3.60;;
2848;SDS011;59355;52.416;13.412;2023-05-10T10:16:50;4.17;;;3.37;;
2848;SDS011;59355;52.416;13.412;2023-05-10T10:19:16;6.30;;;4.20;;
2848;SDS011;59355;52.416;13.412;2023-05-10T10:21:43;7.77;;;4.40;;
2848;SDS011;59355;52.416;13.412;2023-05-10T10:24:08;6.27;;;3.83;;
2848;SDS011;59355;52.416;13.412;2023-05-10T10:26:33;5.50;;;3.90;;
2848;SDS011;59355;52.416;13.412;2023-05-10T10:29:04;4.10;;;3.63;;
2848;SDS011;59355;52.416;13.412;2023-05-10T10:34:27;3.80;;;3.50;;
2848;SDS011;59355;52.416;13.412;2023-05-10T10:36:53;4.13;;;3.73;;
2848;SDS011;59355;52.416;13.412;2023-05-10T10:39:20;4.60;;;3.87;;
2848;SDS011;59355;52.416;13.412;2023-05-10T10:41:52;4.33;;;3.93;;
2848;SDS011;59355;52.416;13.412;2023-05-10T10:44:22;4.53;;;3.60;;
2848;SDS011;59355;52.416;13.412;2023-05-10T10:57:21;4.60;;;3.70;;
2848;SDS011;59355;52.416;13.412;2023-05-10T10:59:47;5.33;;;3.80;;
2848;SDS011;59355;52.416;13.412;2023-05-10T11:05:33;4.90;;;3.50;;
2848;SDS011;59355;52.416;13.412;2023-05-10T11:08:07;3.80;;;3.50;;
2848;SDS011;59355;52.416;13.412;2023-05-10T11:10:34;6.37;;;4.33;;
2848;SDS011;59355;52.416;13.412;2023-05-10T11:13:04;3.97;;;3.33;;
2848;SDS011;59355;52.416;13.412;2023-05-10T11:15:31;3.83;;;3.50;;
2848;SDS011;59355;52.416;13.412;2023-05-10T11:17:57;3.20;;;2.90;;
2848;SDS011;59355;52.416;13.412;2023-05-10T11:20:22;4.10;;;3.70;;
2848;SDS011;59355;52.416;13.412;2023-05-10T11:22:51;5.57;;;3.33;;
2848;SDS011;59355;52.416;13.412;2023-05-10T11:25:17;4.17;;;3.77;;
2848;SDS011;59355;52.416;13.412;2023-05-10T11:27:43;7.27;;;4.17;;
2848;SDS011;59355;52.416;13.412;2023-05-10T11:30:11;4.50;;;3.60;;
2848;SDS011;59355;52.416;13.412;2023-05-10T11:32:37;3.80;;;3.47;;
2848;SDS011;59355;52.416;13.412;2023-05-10T11:35:10;4.07;;;3.67;;
2848;SDS011;59355;52.416;13.412;2023-05-10T11:37:36;5.40;;;4.30;;
2848;SDS011;59355;52.416;13.412;2023-05-10T11:40:06;4.37;;;3.70;;
2848;SDS011;59355;52.416;13.412;2023-05-10T11:45:33;3.47;;;3.17;;
2848;SDS011;59355;52.416;13.412;2023-05-10T11:47:59;6.23;;;4.20;;
2848;SDS011;59355;52.416;13.412;2023-05-10T11:50:24;3.70;;;3.30;;
2848;SDS011;59355;52.416;13.412;2023-05-10T11:52:54;5.53;;;3.43;;
2848;SDS011;59355;52.416;13.412;2023-05-10T11:55:20;5.40;;;4.20;;
2848;SDS011;59355;52.416;13.412;2023-05-10T11:57:46;5.40;;;3.83;;
2848;SDS011;59355;52.416;13.412;2023-05-10T12:00:14;4.90;;;4.40;;
2848;SDS011;59355;52.416;13.412;2023-05-10T12:02:40;4.53;;;4.13;;
2848;SDS011;59355;52.416;13.412;2023-05-10T12:05:05;8.00;;;3.53;;
2848;SDS011;59355;52.416;13.412;2023-05-10T12:07:31;4.50;;;3.33;;
2848;SDS011;59355;52.416;13.412;2023-05-10T12:10:10;3.67;;;3.37;;
2848;SDS011;59355;52.416;13.412;2023-05-10T12:12:43;4.37;;;3.97;;
2848;SDS011;59355;52.416;13.412;2023-05-10T12:15:22;5.10;;;4.00;;
2848;SDS011;59355;52.416;13.412;2023-05-10T12:17:48;6.43;;;3.50;;
2848;SDS011;59355;52.416;13.412;2023-05-10T12:20:15;4.60;;;3.43;;
2848;SDS011;59355;52.416;13.412;2023-05-10T12:22:49;4.50;;;4.10;;
2848;SDS011;59355;52.416;13.412;2023-05-10T12:25:22;3.80;;;3.47;;
2848;SDS011;59355;52.416;13.412;2023-05-10T12:27:52;4.53;;;3.80;;
2848;SDS011;59355;52.416;13.412;2023-05-10T12:30:22;4.40;;;3.57;;
2848;SDS011;59355;52.416;13.412;2023-05-10T12:32:47;4.50;;;3.90;;
2848;SDS011;59355;52.416;13.412;2023-05-10T12:35:13;4.60;;;3.93;;
2848;SDS011;59355;52.416;13.412;2023-05-10T12:37:38;4.40;;;4.00;;
2848;SDS011;59355;52.416;13.412;2023-05-10T12:40:07;3.93;;;3.53;;
2848;SDS011;59355;52.416;13.412;2023-05-10T12:42:34;3.93;;;3.63;;
2848;SDS011;59355;52.416;13.412;2023-05-10T12:45:00;3.50;;;3.20;;
2848;SDS011;59355;52.416;13.412;2023-05-10T12:47:26;3.73;;;3.43;;
2848;SDS011;59355;52.416;13.412;2023-05-10T12:49:51;3.90;;;3.53;;
2848;SDS011;59355;52.416;13.412;2023-05-10T12:52:16;3.90;;;3.60;;
2848;SDS011;59355;52.416;13.412;2023-05-10T12:54:42;3.50;;;3.20;;
2848;SDS011;59355;52.416;13.412;2023-05-10T12:57:07;5.30;;;3.90;;
2848;SDS011;59355;52.416;13.412;2023-05-10T12:59:32;5.00;;;3.40;;
2848;SDS011;59355;52.416;13.412;2023-05-10T13:01:58;10.27;;;4.60;;
2848;SDS011;59355;52.416;13.412;2023-05-10T13:04:23;7.20;;;3.87;;
2848;SDS011;59355;52.416;13.412;2023-05-10T13:06:48;11.50;;;4.83;;
2848;SDS011;59355;52.416;13.412;2023-05-10T13:09:14;3.70;;;3.40;;
2848;SDS011;59355;52.416;13.412;2023-05-10T13:11:40;3.97;;;3.57;;
2848;SDS011;59355;52.416;13.412;2023-05-10T13:14:05;4.03;;;3.30;;
2848;SDS011;59355;52.416;13.412;2023-05-10T13:16:30;4.07;;;3.77;;
2848;SDS011;59355;52.416;13.412;2023-05-10T13:18:56;3.50;;;3.20;;
2848;SDS011;59355;52.416;13.412;2023-05-10T13:21:21;6.03;;;3.73;;
2848;SDS011;59355;52.416;13.412;2023-05-10T13:23:46;4.20;;;3.80;;
2848;SDS011;59355;52.416;13.412;2023-05-10T13:26:12;8.27;;;3.80;;
2848;SDS011;59355;52.416;13.412;2023-05-10T13:28:38;4.23;;;3.87;;
2848;SDS011;59355;52.416;13.412;2023-05-10T13:31:03;6.70;;;3.47;;
2848;SDS011;59355;52.416;13.412;2023-05-10T13:33:29;3.67;;;3.37;;
2848;SDS011;59355;52.416;13.412;2023-05-10T13:35:55;4.70;;;3.30;;
2848;SDS011;59355;52.416;13.412;2023-05-10T13:38:20;3.93;;;3.63;;
2848;SDS011;59355;52.416;13.412;2023-05-10T13:40:45;4.60;;;4.20;;
2848;SDS011;59355;52.416;13.412;2023-05-10T13:43:11;5.33;;;3.60;;
2848;SDS011;59355;52.416;13.412;2023-05-10T13:45:36;4.67;;;3.90;;
2848;SDS011;59355;52.416;13.412;2023-05-10T13:48:01;6.10;;;3.03;;
2848;SDS011;59355;52.416;13.412;2023-05-10T13:50:27;4.10;;;3.77;;
2848;SDS011;59355;52.416;13.412;2023-05-10T13:52:52;5.70;;;3.77;;
2848;SDS011;59355;52.416;13.412;2023-05-10T13:55:17;4.30;;;3.07;;
2848;SDS011;59355;52.416;13.412;2023-05-10T13:57:43;3.43;;;3.13;;
2848;SDS011;59355;52.416;13.412;2023-05-10T14:00:08;4.20;;;3.27;;
2848;SDS011;59355;52.416;13.412;2023-05-10T14:02:34;3.73;;;3.40;;
2848;SDS011;59355;52.416;13.412;2023-05-10T14:04:59;5.70;;;3.37;;
2848;SDS011;59355;52.416;13.412;2023-05-10T14:07:25;3.93;;;3.10;;
2848;SDS011;59355;52.416;13.412;2023-05-10T14:09:50;4.53;;;3.30;;
2848;SDS011;59355;52.416;13.412;2023-05-10T14:12:16;3.97;;;3.17;;
2848;SDS011;59355;52.416;13.412;2023-05-10T14:14:41;3.53;;;3.03;;
2848;SDS011;59355;52.416;13.412;2023-05-10T14:17:07;4.87;;;3.23;;
2848;SDS011;59355;52.416;13.412;2023-05-10T14:19:32;3.30;;;3.00;;
2848;SDS011;59355;52.416;13.412;2023-05-10T14:21:58;3.87;;;3.30;;
2848;SDS011;59355;52.416;13.412;2023-05-10T14:24:24;3.93;;;3.40;;
2848;SDS011;59355;52.416;13.412;2023-05-10T14:26:49;3.93;;;3.40;;
2848;SDS011;59355;52.416;13.412;2023-05-10T14:29:18;3.60;;;3.23;;
2848;SDS011;59355;52.416;13.412;2023-05-10T14:31:43;3.73;;;3.10;;
2848;SDS011;59355;52.416;13.412;2023-05-10T14:34:09;3.50;;;3.20;;
2848;SDS011;59355;52.416;13.412;2023-05-10T14:36:34;3.20;;;2.90;;
2848;SDS011;59355;52.416;13.412;2023-05-10T14:38:59;3.20;;;2.90;;
2848;SDS011;59355;52.416;13.412;2023-05-10T14:41:25;4.90;;;3.90;;
2848;SDS011;59355;52.416;13.412;2023-05-10T14:43:50;6.80;;;3.30;;
2848;SDS011;59355;52.416;13.412;2023-05-10T14:46:15;7.87;;;3.17;;
2848;SDS011;59355;52.416;13.412;2023-05-10T14:48:40;4.20;;;3.20;;
2848;SDS011;59355;52.416;13.412;2023-05-10T14:51:06;3.10;;;2.83;;
2848;SDS011;59355;52.416;13.412;2023-05-10T14:53:31;3.83;;;2.70;;
2848;SDS011;59355;52.416;13.412;2023-05-10T14:55:57;3.70;;;3.03;;
2848;SDS011;59355;52.416;13.412;2023-05-10T14:58:23;3.70;;;3.30;;
2848;SDS011;59355;52.416;13.412;2023-05-10T15:00:48;5.27;;;3.37;;
2848;SDS011;59355;52.416;13.412;2023-05-10T15:03:13;3.50;;;3.20;;
2848;SDS011;59355;52.416;13.412;2023-05-10T15:05:38;4.70;;;3.30;;
2848;SDS011;59355;52.416;13.412;2023-05-10T15:08:04;4.97;;;2.87;;
2848;SDS011;59355;52.416;13.412;2023-05-10T15:10:30;7.87;;;3.40;;
2848;SDS011;59355;52.416;13.412;2023-05-10T15:12:57;6.70;;;3.07;;
2848;SDS011;59355;52.416;13.412;2023-05-10T15:15:22;7.07;;;3.53;;
2848;SDS011;59355;52.416;13.412;2023-05-10T15:17:48;3.30;;;3.10;;